Time;durP1;ratioP1;P1;durP2;ratioP2;P2;SDS_P1;SDS_P2;PMS_P1;PMS_P2;Temp;Humidity;BMP_temperature;BMP_pressure;BME280_temperature;BME280_humidity;BME280_pressure;Samples;Min_cycle;Max_cycle;Signal;HPM_P1;HPM_P2
2021/07/03 00:00:42;;;;;;;3.78;3.30;;;25.00;48.90;;;;;;5029327;28;20094;-61
2021/07/03 00:03:08;;;;;;;4.03;3.10;;;25.00;48.90;;;;;;5028511;28;20039;-62
2021/07/03 00:05:34;;;;;;;3.83;3.38;;;25.00;48.90;;;;;;5025539;28;20037;-61
2021/07/03 00:07:59;;;;;;;4.18;3.33;;;24.90;48.90;;;;;;5025525;28;20313;-60
2021/07/03 00:10:25;;;;;;;4.30;3.28;;;24.90;49.00;;;;;;5021936;28;20030;-61
2021/07/03 00:12:51;;;;;;;3.45;3.08;;;25.00;49.00;;;;;;5024563;28;20091;-64
2021/07/03 00:15:22;;;;;;;3.85;3.05;;;24.90;49.00;;;;;;5020651;28;20025;-63
2021/07/03 00:17:50;;;;;;;3.78;3.38;;;24.90;49.00;;;;;;5019736;28;20084;-62
2021/07/03 00:20:17;;;;;;;4.32;3.08;;;24.90;49.00;;;;;;5025645;28;20408;-63
2021/07/03 00:22:43;;;;;;;3.40;3.08;;;24.90;49.00;;;;;;5027112;28;20030;-61
2021/07/03 00:25:09;;;;;;;3.58;2.90;;;24.90;49.00;;;;;;5023158;28;20120;-60
2021/07/03 00:27:35;;;;;;;4.07;3.38;;;24.90;49.00;;;;;;5023580;28;21377;-61
2021/07/03 00:30:01;;;;;;;3.33;3.00;;;24.80;49.00;;;;;;5029129;28;20021;-62
2021/07/03 00:32:27;;;;;;;3.40;2.70;;;24.80;48.90;;;;;;5019068;28;20041;-63
2021/07/03 00:34:55;;;;;;;3.97;3.45;;;24.80;49.00;;;;;;5019499;28;20026;-61
2021/07/03 00:37:21;;;;;;;3.40;3.10;;;24.80;48.90;;;;;;5016878;28;20052;-61
2021/07/03 00:39:46;;;;;;;3.92;3.22;;;24.80;48.90;;;;;;5023681;28;20029;-63
2021/07/03 00:42:12;;;;;;;3.95;3.20;;;24.80;48.90;;;;;;5019469;28;20022;-61
2021/07/03 00:44:38;;;;;;;5.53;3.30;;;24.80;49.00;;;;;;5020925;28;20051;-60
2021/07/03 00:47:09;;;;;;;3.10;2.80;;;24.80;49.00;;;;;;5026244;28;20521;-61
2021/07/03 00:49:37;;;;;;;3.75;3.08;;;24.80;49.00;;;;;;5021971;28;20025;-63
2021/07/03 00:52:04;;;;;;;3.67;3.28;;;24.80;49.00;;;;;;5021233;28;20037;-63
2021/07/03 00:54:33;;;;;;;3.75;3.35;;;24.80;49.00;;;;;;5016123;28;20087;-62
2021/07/03 00:57:02;;;;;;;4.20;3.33;;;24.80;49.00;;;;;;5020624;28;20402;-62
2021/07/03 00:59:35;;;;;;;4.20;3.50;;;24.80;49.00;;;;;;5020209;28;20390;-61
2021/07/03 01:02:06;;;;;;;3.85;3.40;;;24.80;49.00;;;;;;5019044;28;20129;-66
2021/07/03 01:04:33;;;;;;;3.85;3.40;;;24.80;49.00;;;;;;5021565;28;20037;-61
2021/07/03 01:07:00;;;;;;;4.45;3.65;;;24.80;49.00;;;;;;5022022;28;20057;-61
2021/07/03 01:09:27;;;;;;;4.13;3.35;;;24.70;48.90;;;;;;5022657;28;20032;-61
2021/07/03 01:11:53;;;;;;;4.20;3.78;;;24.80;49.60;;;;;;5020393;28;20030;-60
2021/07/03 01:14:19;;;;;;;4.47;3.70;;;24.70;48.90;;;;;;5024090;28;20057;-62
2021/07/03 01:16:47;;;;;;;5.13;3.58;;;24.70;48.90;;;;;;4999825;28;20046;-61
2021/07/03 01:19:15;;;;;;;3.70;3.30;;;24.70;48.90;;;;;;5036778;28;20096;-59
2021/07/03 01:21:49;;;;;;;4.05;3.45;;;24.70;48.90;;;;;;5022534;28;20029;-63
2021/07/03 01:24:16;;;;;;;4.22;3.40;;;24.70;48.90;;;;;;5022919;28;20030;-61
2021/07/03 01:26:45;;;;;;;4.03;3.60;;;24.70;48.90;;;;;;5022630;28;20053;-63
2021/07/03 01:29:15;;;;;;;4.03;3.33;;;24.70;48.90;;;;;;5019557;28;20045;-62
2021/07/03 01:31:43;;;;;;;3.75;3.38;;;24.70;49.00;;;;;;5021641;28;20034;-60
2021/07/03 01:34:09;;;;;;;4.25;3.85;;;24.70;49.00;;;;;;5020566;28;20088;-61
2021/07/03 01:36:38;;;;;;;4.32;3.40;;;24.60;48.90;;;;;;5024513;28;20510;-62
2021/07/03 01:39:07;;;;;;;3.80;3.40;;;24.70;49.00;;;;;;5020279;28;20133;-65
2021/07/03 01:41:34;;;;;;;4.22;3.53;;;24.70;49.00;;;;;;5016973;28;20041;-58
2021/07/03 01:44:01;;;;;;;4.50;3.60;;;24.60;49.00;;;;;;5020667;28;20092;-63
2021/07/03 01:46:28;;;;;;;4.05;3.45;;;24.60;49.00;;;;;;5021094;28;20050;-62
2021/07/03 01:49:04;;;;;;;3.53;3.15;;;24.60;49.10;;;;;;5016602;28;20040;-61
2021/07/03 01:51:44;;;;;;;3.83;3.40;;;24.60;49.10;;;;;;5031614;28;20033;-62
2021/07/03 01:54:12;;;;;;;4.07;3.55;;;24.60;49.20;;;;;;5018863;28;20034;-62
2021/07/03 01:56:41;;;;;;;4.43;3.53;;;24.60;49.20;;;;;;5017893;28;20117;-61
2021/07/03 01:59:12;;;;;;;4.35;3.65;;;24.60;49.20;;;;;;5017384;28;20037;-62
2021/07/03 02:01:55;;;;;;;4.38;3.78;;;24.60;49.20;;;;;;5016599;28;20109;-60
2021/07/03 02:04:26;;;;;;;4.97;4.10;;;24.60;49.20;;;;;;5021633;28;20025;-62
2021/07/03 02:06:53;;;;;;;4.45;3.90;;;24.60;49.30;;;;;;5019994;28;20095;-60
2021/07/03 02:09:24;;;;;;;4.38;3.97;;;24.60;49.30;;;;;;5019890;28;20449;-61
2021/07/03 02:11:54;;;;;;;4.45;3.72;;;24.60;49.90;;;;;;5026049;28;20053;-62
2021/07/03 02:14:28;;;;;;;5.55;3.88;;;24.60;49.30;;;;;;5017660;28;20405;-62
2021/07/03 02:17:13;;;;;;;4.60;3.70;;;24.60;49.30;;;;;;5016828;28;20355;-61
2021/07/03 02:19:41;;;;;;;4.50;3.92;;;24.60;49.30;;;;;;5034614;28;20124;-59
2021/07/03 02:22:09;;;;;;;4.82;4.03;;;24.60;49.30;;;;;;5017047;28;20033;-60
2021/07/03 02:24:44;;;;;;;4.38;3.70;;;24.60;49.30;;;;;;5033970;28;20100;-59
2021/07/03 02:27:10;;;;;;;5.05;3.83;;;24.60;49.30;;;;;;5019857;28;20445;-63
2021/07/03 02:29:37;;;;;;;4.95;3.70;;;24.50;49.20;;;;;;5020770;28;20452;-61
2021/07/03 02:32:04;;;;;;;4.75;3.70;;;24.50;49.30;;;;;;5021896;28;20025;-61
2021/07/03 02:34:34;;;;;;;4.95;4.15;;;24.50;49.30;;;;;;5033339;28;20104;-60
2021/07/03 02:37:00;;;;;;;4.03;3.55;;;24.50;49.20;;;;;;5017649;28;20052;-63
2021/07/03 02:39:26;;;;;;;4.75;3.75;;;24.50;49.20;;;;;;5019705;28;20040;-63
2021/07/03 02:41:53;;;;;;;4.45;3.45;;;24.50;49.20;;;;;;5015004;28;20433;-61
2021/07/03 02:44:20;;;;;;;4.70;4.03;;;24.50;49.20;;;;;;5018915;28;20104;-60
2021/07/03 02:46:47;;;;;;;3.65;3.20;;;24.40;49.20;;;;;;5023095;28;20079;-62
2021/07/03 02:49:15;;;;;;;4.45;3.95;;;24.40;49.10;;;;;;5016010;28;20033;-59
2021/07/03 02:51:42;;;;;;;5.60;3.92;;;24.40;49.10;;;;;;5020697;28;20025;-62
2021/07/03 02:54:07;;;;;;;4.47;3.92;;;24.40;49.10;;;;;;5014637;28;20080;-61
2021/07/03 02:56:34;;;;;;;5.07;3.95;;;24.40;49.10;;;;;;5031895;28;20116;-61
2021/07/03 02:59:02;;;;;;;4.90;4.15;;;24.40;49.10;;;;;;5021798;28;20026;-61
2021/07/03 03:01:27;;;;;;;4.22;3.78;;;24.40;49.10;;;;;;5017311;28;20076;-60
2021/07/03 03:03:53;;;;;;;4.60;3.80;;;24.40;49.10;;;;;;5018062;28;20353;-63
2021/07/03 03:06:19;;;;;;;4.68;3.97;;;24.40;49.70;;;;;;5021033;28;21566;-60
2021/07/03 03:08:53;;;;;;;3.92;3.47;;;24.40;49.10;;;;;;5013772;28;20096;-62
2021/07/03 03:11:21;;;;;;;4.28;3.75;;;24.30;49.10;;;;;;5020151;28;20034;-60
2021/07/03 03:13:47;;;;;;;4.20;3.75;;;24.30;49.20;;;;;;5018810;28;20056;-61
2021/07/03 03:16:15;;;;;;;4.93;3.97;;;24.30;49.20;;;;;;5013164;28;20049;-62
2021/07/03 03:18:41;;;;;;;4.32;3.88;;;24.30;49.20;;;;;;5020222;28;20608;-60
2021/07/03 03:21:08;;;;;;;4.85;3.78;;;24.30;49.20;;;;;;5034629;28;20098;-61
2021/07/03 03:23:34;;;;;;;4.95;4.28;;;24.30;49.20;;;;;;5019422;28;20052;-63
2021/07/03 03:26:00;;;;;;;4.72;3.88;;;24.30;49.20;;;;;;5021758;28;20037;-61
2021/07/03 03:28:30;;;;;;;4.82;4.00;;;24.30;49.30;;;;;;5019331;28;20120;-62
2021/07/03 03:30:56;;;;;;;5.20;4.22;;;24.30;49.20;;;;;;5018749;28;20173;-61
2021/07/03 03:33:27;;;;;;;5.28;4.45;;;24.30;49.20;;;;;;5019164;28;20026;-59
2021/07/03 03:35:53;;;;;;;4.90;4.05;;;24.30;49.20;;;;;;5015730;28;20115;-63
2021/07/03 03:38:19;;;;;;;5.38;4.55;;;24.30;49.30;;;;;;5018420;28;20139;-61
2021/07/03 03:40:45;;;;;;;5.18;4.28;;;24.20;49.30;;;;;;5015485;28;20049;-61
2021/07/03 03:43:14;;;;;;;4.88;4.00;;;24.30;49.30;;;;;;5015012;28;20037;-61
2021/07/03 03:45:42;;;;;;;5.40;4.68;;;24.20;49.30;;;;;;5018939;28;20037;-60
2021/07/03 03:48:08;;;;;;;5.28;4.25;;;24.20;49.30;;;;;;5017789;28;20065;-62
2021/07/03 03:50:39;;;;;;;5.00;4.20;;;24.30;49.50;;;;;;5024340;28;20118;-61
2021/07/03 03:53:07;;;;;;;5.18;4.43;;;24.20;49.40;;;;;;5017337;28;20029;-63
2021/07/03 03:55:33;;;;;;;6.32;4.50;;;24.30;49.50;;;;;;5015098;28;20463;-59
2021/07/03 03:57:59;;;;;;;4.65;4.15;;;24.30;49.50;;;;;;5024110;28;20069;-63
2021/07/03 04:00:26;;;;;;;4.40;3.85;;;24.30;49.60;;;;;;5019896;28;20449;-62
2021/07/03 04:02:59;;;;;;;4.85;3.95;;;24.20;49.60;;;;;;5020940;28;20430;-62
2021/07/03 04:05:32;;;;;;;5.18;3.90;;;24.30;49.70;;;;;;5021175;28;20022;-62
2021/07/03 04:07:59;;;;;;;4.50;4.10;;;24.20;49.70;;;;;;5018240;28;20115;-62
2021/07/03 04:10:26;;;;;;;5.90;4.68;;;24.20;49.70;;;;;;5019757;28;20433;-61
2021/07/03 04:12:52;;;;;;;6.50;4.30;;;24.30;49.80;;;;;;5030898;28;20044;-60
2021/07/03 04:15:18;;;;;;;5.90;4.47;;;24.30;49.80;;;;;;5018911;28;20105;-60
2021/07/03 04:17:44;;;;;;;5.15;4.57;;;24.30;49.80;;;;;;5022059;28;20049;-60
2021/07/03 04:20:10;;;;;;;4.13;3.72;;;24.30;49.80;;;;;;5023519;28;20103;-61
2021/07/03 04:22:37;;;;;;;4.80;4.30;;;24.30;49.80;;;;;;5022558;28;20132;-62
2021/07/03 04:25:05;;;;;;;5.35;4.20;;;24.30;49.80;;;;;;5023995;28;20060;-61
2021/07/03 04:27:31;;;;;;;4.72;4.07;;;24.30;49.80;;;;;;5027102;28;20400;-62
2021/07/03 04:29:56;;;;;;;6.15;4.45;;;24.30;49.80;;;;;;5022555;28;20088;-63
2021/07/03 04:32:22;;;;;;;5.00;4.50;;;24.30;49.80;;;;;;5023023;28;20033;-60
2021/07/03 04:34:48;;;;;;;4.63;3.97;;;24.30;49.80;;;;;;5021026;28;20109;-62
2021/07/03 04:37:14;;;;;;;4.45;4.05;;;24.30;49.80;;;;;;5025840;28;20041;-64
2021/07/03 04:39:40;;;;;;;5.18;4.30;;;24.30;50.40;;;;;;5022087;28;20040;-61
2021/07/03 04:42:05;;;;;;;5.97;4.30;;;24.30;49.90;;;;;;5024212;28;20100;-65
2021/07/03 04:44:31;;;;;;;4.68;4.05;;;24.30;49.90;;;;;;5021495;28;20030;-62
2021/07/03 04:46:57;;;;;;;5.97;4.05;;;24.30;49.90;;;;;;5020487;28;20044;-64
2021/07/03 04:49:23;;;;;;;5.00;4.18;;;24.30;49.90;;;;;;5028194;28;20025;-61
2021/07/03 04:51:51;;;;;;;4.70;4.20;;;24.30;49.90;;;;;;5016255;28;20040;-62
2021/07/03 04:54:17;;;;;;;5.13;4.63;;;24.30;49.90;;;;;;5021452;28;20025;-63
2021/07/03 04:56:42;;;;;;;4.68;4.18;;;24.30;49.90;;;;;;5022301;28;20060;-61
2021/07/03 04:59:08;;;;;;;4.90;3.85;;;24.30;50.00;;;;;;5021770;28;20425;-60
2021/07/03 05:01:34;;;;;;;4.50;4.00;;;24.30;49.90;;;;;;5022294;28;20060;-62
2021/07/03 05:04:00;;;;;;;4.72;4.22;;;24.30;50.00;;;;;;5022322;28;20037;-61
2021/07/03 05:06:26;;;;;;;5.00;4.07;;;24.30;50.00;;;;;;5015965;28;20029;-61
2021/07/03 05:08:51;;;;;;;4.75;4.03;;;24.30;49.90;;;;;;5034026;28;20481;-63
2021/07/03 05:11:17;;;;;;;4.57;4.07;;;24.30;50.00;;;;;;5028393;28;20026;-59
2021/07/03 05:13:43;;;;;;;5.25;4.38;;;24.30;50.00;;;;;;5017359;28;20057;-58
2021/07/03 05:16:09;;;;;;;4.72;4.22;;;24.30;50.00;;;;;;5017882;28;20323;-62
2021/07/03 05:18:35;;;;;;;4.47;3.97;;;24.30;50.00;;;;;;5021765;28;20045;-63
2021/07/03 05:21:00;;;;;;;4.72;4.22;;;24.30;50.00;;;;;;5018307;28;20045;-61
2021/07/03 05:23:27;;;;;;;4.95;4.38;;;24.30;50.00;;;;;;5021341;28;20107;-59
2021/07/03 05:25:54;;;;;;;5.15;4.22;;;24.30;50.00;;;;;;5021370;28;20038;-63
2021/07/03 05:28:20;;;;;;;5.05;4.28;;;24.30;50.10;;;;;;5016467;28;20037;-61
2021/07/03 05:30:48;;;;;;;4.57;3.97;;;24.30;50.10;;;;;;5021395;28;20026;-61
2021/07/03 05:33:14;;;;;;;5.45;4.55;;;24.30;50.20;;;;;;5025584;28;20045;-60
2021/07/03 05:35:40;;;;;;;5.82;4.95;;;24.30;50.20;;;;;;5024952;28;20029;-59
2021/07/03 05:38:06;;;;;;;5.45;4.70;;;24.30;50.20;;;;;;5025204;28;20048;-63
2021/07/03 05:40:32;;;;;;;5.93;5.18;;;24.30;50.20;;;;;;5022895;28;20030;-61
2021/07/03 05:42:58;;;;;;;6.10;4.97;;;24.30;50.20;;;;;;5020983;28;20422;-62
2021/07/03 05:45:23;;;;;;;4.70;4.20;;;24.30;50.30;;;;;;5017114;28;20057;-60
2021/07/03 05:47:50;;;;;;;5.32;4.35;;;24.40;50.30;;;;;;5020606;28;20053;-60
2021/07/03 05:50:25;;;;;;;6.53;5.00;;;24.30;50.30;;;;;;5023669;28;20026;-62
2021/07/03 05:52:53;;;;;;;5.03;4.53;;;24.40;51.00;;;;;;5024233;28;20423;-60
2021/07/03 05:55:20;;;;;;;5.65;4.72;;;24.40;50.50;;;;;;5025900;28;20036;-62
2021/07/03 05:57:46;;;;;;;8.70;4.50;;;24.30;50.40;;;;;;5019226;28;20461;-60
2021/07/03 06:00:13;;;;;;;5.63;4.63;;;24.40;50.50;;;;;;5022596;28;20083;-63
2021/07/03 06:02:43;;;;;;;5.75;4.65;;;24.40;50.60;;;;;;5014333;28;20026;-62
2021/07/03 06:05:10;;;;;;;5.88;4.55;;;24.40;50.70;;;;;;5019149;28;20042;-59
2021/07/03 06:07:35;;;;;;;5.72;4.88;;;24.40;50.70;;;;;;5018044;28;20105;-61
2021/07/03 06:10:01;;;;;;;5.00;4.47;;;24.40;51.10;;;;;;5036097;28;20113;-62
2021/07/03 06:12:27;;;;;;;5.82;5.10;;;24.40;50.80;;;;;;5020634;28;20037;-63
2021/07/03 06:14:53;;;;;;;5.43;4.53;;;24.40;50.90;;;;;;5021987;28;20014;-60
2021/07/03 06:17:19;;;;;;;5.78;4.80;;;24.40;50.90;;;;;;5025946;28;20072;-59
2021/07/03 06:19:45;;;;;;;5.63;4.65;;;24.40;50.90;;;;;;5022988;28;20038;-60
2021/07/03 06:22:13;;;;;;;5.00;4.35;;;24.40;50.90;;;;;;5025533;28;20098;-60
2021/07/03 06:24:42;;;;;;;5.47;4.55;;;24.40;51.00;;;;;;5020905;28;20088;-62
2021/07/03 06:27:09;;;;;;;5.85;4.28;;;24.40;51.00;;;;;;5025547;28;20445;-61
2021/07/03 06:29:35;;;;;;;5.95;4.80;;;24.50;51.00;;;;;;5021995;28;20030;-63
2021/07/03 06:32:02;;;;;;;7.22;4.43;;;24.40;51.60;;;;;;5023689;28;20034;-61
2021/07/03 06:34:28;;;;;;;6.63;5.03;;;24.40;51.00;;;;;;5016998;28;20026;-61
2021/07/03 06:36:54;;;;;;;5.32;4.78;;;24.50;51.10;;;;;;5015945;28;20087;-61
2021/07/03 06:39:20;;;;;;;6.07;4.72;;;24.50;51.10;;;;;;5023010;28;20086;-61
2021/07/03 06:41:46;;;;;;;5.60;4.38;;;24.50;51.10;;;;;;5023491;28;20112;-61
2021/07/03 06:44:12;;;;;;;5.47;4.63;;;24.50;51.20;;;;;;5019370;28;20047;-61
2021/07/03 06:46:38;;;;;;;5.25;4.63;;;24.50;51.20;;;;;;5019229;28;20033;-61
2021/07/03 06:49:03;;;;;;;5.32;4.63;;;24.50;51.30;;;;;;5018764;28;20033;-58
2021/07/03 06:51:29;;;;;;;6.43;5.00;;;24.50;51.30;;;;;;5018778;28;20358;-57
2021/07/03 06:53:57;;;;;;;6.15;4.90;;;24.50;51.40;;;;;;5024520;28;20040;-62
2021/07/03 06:56:23;;;;;;;7.60;5.75;;;24.50;51.50;;;;;;5018012;28;20080;-60
2021/07/03 06:58:49;;;;;;;7.05;5.43;;;24.50;51.50;;;;;;5020887;28;20036;-60
2021/07/03 07:01:15;;;;;;;6.57;5.40;;;24.50;51.50;;;;;;5021336;28;20021;-59
2021/07/03 07:03:41;;;;;;;6.18;5.50;;;24.50;51.50;;;;;;5015385;28;20022;-59
2021/07/03 07:06:06;;;;;;;5.60;4.55;;;24.50;51.50;;;;;;5016437;28;20022;-59
2021/07/03 07:08:32;;;;;;;4.78;4.28;;;24.50;51.60;;;;;;5022858;28;20076;-61
2021/07/03 07:10:58;;;;;;;4.90;4.25;;;24.50;51.50;;;;;;5020041;28;20025;-59
2021/07/03 07:13:24;;;;;;;5.65;4.50;;;24.50;51.50;;;;;;5019102;28;20396;-59
2021/07/03 07:15:50;;;;;;;7.30;4.97;;;24.60;51.60;;;;;;5019857;28;20041;-60
2021/07/03 07:18:16;;;;;;;5.63;4.72;;;24.50;51.50;;;;;;5024544;28;20048;-60
2021/07/03 07:20:42;;;;;;;5.15;4.38;;;24.60;51.60;;;;;;5017884;28;20045;-59
2021/07/03 07:23:08;;;;;;;7.57;4.82;;;24.60;51.60;;;;;;5022921;28;20484;-56
2021/07/03 07:25:36;;;;;;;6.85;5.10;;;24.60;51.60;;;;;;5019064;28;20025;-64
2021/07/03 07:28:02;;;;;;;5.47;4.97;;;24.60;52.30;;;;;;5019754;28;20036;-61
2021/07/03 07:30:28;;;;;;;4.90;4.32;;;24.60;51.80;;;;;;5020452;28;20712;-61
2021/07/03 07:32:53;;;;;;;6.65;5.18;;;24.60;51.90;;;;;;5019479;28;20067;-61
2021/07/03 07:35:20;;;;;;;6.82;5.22;;;24.70;52.10;;;;;;5020441;28;20037;-63
2021/07/03 07:37:48;;;;;;;6.70;5.38;;;24.70;52.20;;;;;;5019314;28;20476;-59
2021/07/03 07:40:15;;;;;;;7.10;5.75;;;24.70;52.30;;;;;;5019865;28;20030;-60
2021/07/03 07:42:41;;;;;;;6.80;5.28;;;24.70;52.40;;;;;;5027715;28;20036;-60
2021/07/03 07:45:08;;;;;;;5.45;4.60;;;24.70;52.40;;;;;;5026545;28;20048;-57
2021/07/03 07:47:34;;;;;;;5.65;4.90;;;24.80;52.40;;;;;;5024529;28;20030;-58
2021/07/03 07:50:01;;;;;;;6.90;4.93;;;24.80;52.40;;;;;;5025183;28;20041;-60
2021/07/03 07:52:26;;;;;;;5.43;4.88;;;24.80;52.30;;;;;;5025001;28;20037;-65
2021/07/03 07:54:52;;;;;;;5.20;4.70;;;24.90;52.30;;;;;;5024491;28;20103;-63
2021/07/03 07:57:27;;;;;;;5.57;4.53;;;25.00;52.20;;;;;;5016384;28;20030;-63
2021/07/03 07:59:53;;;;;;;5.65;4.82;;;25.00;51.90;;;;;;5020575;28;20021;-63
2021/07/03 08:02:19;;;;;;;5.03;4.53;;;25.00;51.80;;;;;;5026776;28;20368;-58
2021/07/03 08:04:45;;;;;;;4.72;4.10;;;25.10;51.80;;;;;;5022320;28;20026;-61
2021/07/03 08:07:11;;;;;;;5.30;4.78;;;25.10;51.70;;;;;;5019652;28;20040;-59
2021/07/03 08:09:37;;;;;;;4.68;4.18;;;25.20;51.60;;;;;;5022957;28;20033;-61
2021/07/03 08:12:03;;;;;;;5.90;4.80;;;25.20;51.50;;;;;;5020495;28;20045;-62
2021/07/03 08:14:29;;;;;;;4.40;4.00;;;25.20;51.30;;;;;;5022026;28;20524;-60
2021/07/03 08:16:55;;;;;;;5.10;4.60;;;25.30;51.30;;;;;;5024882;28;20045;-60
2021/07/03 08:19:22;;;;;;;5.28;4.15;;;25.30;51.30;;;;;;5021020;28;20021;-61
2021/07/03 08:21:48;;;;;;;4.28;3.88;;;25.30;51.10;;;;;;5026843;28;20072;-55
2021/07/03 08:24:14;;;;;;;4.68;4.13;;;25.30;51.10;;;;;;5024888;28;20061;-61
2021/07/03 08:26:40;;;;;;;5.30;4.60;;;25.40;51.00;;;;;;5023839;28;20026;-58
2021/07/03 08:29:06;;;;;;;4.60;3.90;;;25.30;50.90;;;;;;5024734;28;20053;-62
2021/07/03 08:31:31;;;;;;;4.10;3.70;;;25.40;50.90;;;;;;5022323;28;20426;-61
2021/07/03 08:33:57;;;;;;;5.13;4.30;;;25.40;50.90;;;;;;5020513;28;20500;-63
2021/07/03 08:36:23;;;;;;;4.72;4.25;;;25.40;50.80;;;;;;5021491;28;20033;-64
2021/07/03 08:38:49;;;;;;;5.53;3.78;;;25.40;50.70;;;;;;5023307;28;20033;-62
2021/07/03 08:41:16;;;;;;;4.65;3.63;;;25.40;50.60;;;;;;5025580;28;20034;-63
2021/07/03 08:43:46;;;;;;;4.28;3.72;;;25.40;50.60;;;;;;5020107;28;20041;-62
2021/07/03 08:46:12;;;;;;;4.10;3.70;;;25.50;50.50;;;;;;5021159;28;20034;-60
2021/07/03 08:48:37;;;;;;;3.72;3.33;;;25.50;50.40;;;;;;5020666;28;20449;-62
2021/07/03 08:51:03;;;;;;;4.38;3.92;;;25.50;50.40;;;;;;5023663;28;20022;-60
2021/07/03 08:53:29;;;;;;;4.57;3.50;;;25.50;50.40;;;;;;5021095;28;20018;-62
2021/07/03 08:55:55;;;;;;;4.50;3.75;;;25.60;51.10;;;;;;5017888;28;20045;-61
2021/07/03 08:58:21;;;;;;;4.63;3.47;;;25.60;50.50;;;;;;5018916;28;20389;-61
2021/07/03 09:00:48;;;;;;;3.90;3.42;;;25.60;50.60;;;;;;5017977;28;20037;-62
2021/07/03 09:03:23;;;;;;;4.97;3.65;;;25.60;50.50;;;;;;5020179;28;20026;-62
2021/07/03 09:05:56;;;;;;;9.50;4.28;;;25.70;50.40;;;;;;5028579;28;20034;-61
2021/07/03 09:08:24;;;;;;;4.30;3.25;;;25.70;50.40;;;;;;5023198;28;20476;-63
2021/07/03 09:11:04;;;;;;;3.55;3.25;;;25.70;50.40;;;;;;5015426;28;20040;-62
2021/07/03 09:13:40;;;;;;;4.55;3.60;;;25.70;50.30;;;;;;5033695;28;20042;-61
2021/07/03 09:16:08;;;;;;;5.22;3.33;;;25.70;50.30;;;;;;5028226;28;20025;-62
2021/07/03 09:18:34;;;;;;;3.70;3.30;;;25.70;50.20;;;;;;5030207;28;20116;-60
2021/07/03 09:21:05;;;;;;;3.95;3.17;;;25.80;50.30;;;;;;5025804;28;20568;-62
2021/07/03 09:23:35;;;;;;;3.30;3.00;;;25.80;50.20;;;;;;5027601;28;20476;-61
2021/07/03 09:26:05;;;;;;;4.57;3.28;;;25.70;50.00;;;;;;5022502;28;20034;-61
2021/07/03 09:28:38;;;;;;;3.85;3.13;;;25.70;49.90;;;;;;5008643;28;20021;-61
2021/07/03 09:31:05;;;;;;;3.97;3.50;;;25.80;49.90;;;;;;5004028;28;20037;-61
2021/07/03 09:33:37;;;;;;;4.07;3.33;;;25.80;50.40;;;;;;5008213;28;20044;-60
2021/07/03 09:36:12;;;;;;;3.20;2.90;;;25.80;49.70;;;;;;4998224;28;20081;-60
2021/07/03 09:38:40;;;;;;;4.35;3.45;;;25.80;49.50;;;;;;5010228;28;20029;-61
2021/07/03 09:41:28;;;;;;;3.60;3.10;;;25.80;49.40;;;;;;5004776;28;20078;-60
2021/07/03 09:43:54;;;;;;;3.60;3.30;;;25.90;49.30;;;;;;5018583;28;20349;-61
2021/07/03 09:46:35;;;;;;;4.07;3.17;;;25.90;49.20;;;;;;5034666;28;20037;-61
2021/07/03 09:49:28;;;;;;;3.45;3.05;;;25.90;49.00;;;;;;5030841;28;20044;-61
2021/07/03 09:51:56;;;;;;;4.38;3.25;;;25.90;49.00;;;;;;5026582;28;20056;-61
2021/07/03 09:54:28;;;;;;;3.30;3.00;;;25.90;49.00;;;;;;5015800;28;20033;-52
2021/07/03 09:57:00;;;;;;;3.67;3.10;;;25.90;48.80;;;;;;5018156;28;20038;-61
2021/07/03 09:59:27;;;;;;;3.42;2.90;;;25.90;48.70;;;;;;5022040;28;20098;-62
2021/07/03 10:01:53;;;;;;;3.17;2.75;;;25.90;48.70;;;;;;5020807;28;20041;-61
2021/07/03 10:04:19;;;;;;;4.22;2.95;;;25.90;48.60;;;;;;5018880;28;20105;-62
2021/07/03 10:06:47;;;;;;;3.47;2.90;;;25.90;48.50;;;;;;5019016;28;20103;-61
2021/07/03 10:09:22;;;;;;;3.53;3.10;;;26.00;48.50;;;;;;5018471;28;20500;-62
2021/07/03 10:11:50;;;;;;;3.70;2.88;;;26.00;48.40;;;;;;5018944;28;20603;-63
2021/07/03 10:14:17;;;;;;;3.33;2.88;;;26.00;48.30;;;;;;5021890;28;20026;-60
2021/07/03 10:16:43;;;;;;;3.75;3.00;;;26.00;48.20;;;;;;5025736;28;20195;-61
2021/07/03 10:19:14;;;;;;;3.58;3.10;;;26.00;48.10;;;;;;5020139;28;20060;-62
2021/07/03 10:21:44;;;;;;;3.50;3.00;;;26.00;48.00;;;;;;5016522;28;20061;-60
2021/07/03 10:24:17;;;;;;;3.13;2.80;;;26.00;48.00;;;;;;5025378;28;20044;-62
2021/07/03 10:26:43;;;;;;;4.22;3.20;;;26.00;47.90;;;;;;5021415;28;20029;-62
2021/07/03 10:29:22;;;;;;;3.35;2.83;;;26.00;47.90;;;;;;5024135;28;20037;-62
2021/07/03 10:31:52;;;;;;;2.95;2.65;;;26.00;47.70;;;;;;5019549;28;20120;-62
2021/07/03 10:34:35;;;;;;;3.28;2.60;;;26.00;48.40;;;;;;5022215;28;20041;-60
2021/07/03 10:37:02;;;;;;;3.22;2.83;;;26.00;47.70;;;;;;5017429;28;20037;-61
2021/07/03 10:39:31;;;;;;;3.45;2.75;;;26.00;47.70;;;;;;5015744;28;20038;-60
2021/07/03 10:41:57;;;;;;;4.13;3.20;;;26.00;47.70;;;;;;5022303;28;20095;-61
2021/07/03 10:44:23;;;;;;;3.20;2.70;;;26.00;47.70;;;;;;5015821;28;20428;-59
2021/07/03 10:46:54;;;;;;;3.30;2.80;;;26.10;47.80;;;;;;5019561;28;20021;-62
2021/07/03 10:49:31;;;;;;;3.20;2.90;;;26.10;47.70;;;;;;5015940;28;20088;-62
2021/07/03 10:51:57;;;;;;;3.22;2.70;;;26.10;47.70;;;;;;5017593;28;20037;-61
2021/07/03 10:54:26;;;;;;;3.33;2.80;;;26.00;47.60;;;;;;5023231;28;20172;-61
2021/07/03 10:57:00;;;;;;;3.08;2.70;;;26.00;47.60;;;;;;5018955;28;20042;-61
2021/07/03 10:59:29;;;;;;;2.88;2.65;;;26.10;47.60;;;;;;5021142;28;20049;-60
2021/07/03 11:02:16;;;;;;;3.58;2.80;;;26.10;47.60;;;;;;5022335;28;20529;-60
2021/07/03 11:04:50;;;;;;;3.67;2.90;;;26.10;47.50;;;;;;5021313;28;20022;-62
2021/07/03 11:07:18;;;;;;;2.75;2.53;;;26.10;47.60;;;;;;5019544;28;20369;-61
2021/07/03 11:09:46;;;;;;;2.92;2.60;;;26.10;47.50;;;;;;5021532;28;20049;-60
2021/07/03 11:12:19;;;;;;;2.75;2.47;;;26.10;47.40;;;;;;5016290;28;20036;-60
2021/07/03 11:14:52;;;;;;;3.22;2.65;;;26.10;47.50;;;;;;5017830;28;20437;-60
2021/07/03 11:17:20;;;;;;;3.53;3.22;;;26.10;47.40;;;;;;5014173;28;20038;-60
2021/07/03 11:19:50;;;;;;;5.13;2.63;;;26.10;47.40;;;;;;5017119;28;20376;-60
2021/07/03 11:22:17;;;;;;;3.10;2.47;;;26.10;47.30;;;;;;5014917;28;20357;-60
2021/07/03 11:24:48;;;;;;;3.45;3.15;;;26.10;47.30;;;;;;5024557;28;20037;-63
2021/07/03 11:27:31;;;;;;;2.90;2.58;;;26.10;47.20;;;;;;5021206;28;20073;-60
2021/07/03 11:30:16;;;;;;;3.50;2.85;;;26.10;47.20;;;;;;5023072;28;20053;-61
2021/07/03 11:32:53;;;;;;;2.92;2.65;;;26.10;47.30;;;;;;5021613;28;20034;-62
2021/07/03 11:35:20;;;;;;;2.92;2.60;;;26.10;47.20;;;;;;5029454;28;20041;-60
2021/07/03 11:37:46;;;;;;;2.75;2.55;;;26.20;47.40;;;;;;5020291;28;20045;-61
2021/07/03 11:40:26;;;;;;;2.90;2.63;;;26.20;47.40;;;;;;5023648;28;20349;-60
2021/07/03 11:42:58;;;;;;;3.25;2.60;;;26.20;47.20;;;;;;5022021;28;20125;-61
2021/07/03 11:45:30;;;;;;;3.50;2.97;;;26.20;47.30;;;;;;5015769;28;20030;-59
2021/07/03 11:48:14;;;;;;;2.90;2.50;;;26.20;47.30;;;;;;5017993;28;20342;-61
2021/07/03 11:50:48;;;;;;;3.47;2.80;;;26.30;47.30;;;;;;5018698;28;20472;-58
2021/07/03 11:53:16;;;;;;;3.15;2.83;;;26.20;47.20;;;;;;5017324;28;20095;-61
2021/07/03 11:55:50;;;;;;;3.00;2.70;;;26.30;47.40;;;;;;5019525;28;20029;-60
2021/07/03 11:58:18;;;;;;;2.70;2.47;;;26.30;47.40;;;;;;5020405;28;20103;-62
2021/07/03 12:00:48;;;;;;;2.50;2.30;;;26.30;47.30;;;;;;5018608;28;20022;-59
2021/07/03 12:03:15;;;;;;;2.63;2.40;;;26.30;47.40;;;;;;5016984;28;20113;-61
2021/07/03 12:05:45;;;;;;;3.38;2.85;;;26.30;47.40;;;;;;5026041;28;20156;-58
2021/07/03 12:08:12;;;;;;;3.00;2.70;;;26.40;47.50;;;;;;5019841;28;20053;-63
2021/07/03 12:10:40;;;;;;;2.80;2.60;;;26.40;47.50;;;;;;5019084;28;20122;-61
2021/07/03 12:13:20;;;;;;;2.78;2.55;;;26.50;47.50;;;;;;5019081;28;20088;-63
2021/07/03 12:16:01;;;;;;;3.25;2.38;;;26.50;47.50;;;;;;5021470;28;20040;-62
2021/07/03 12:18:31;;;;;;;2.80;2.47;;;26.50;47.50;;;;;;5019447;28;20076;-62
2021/07/03 12:21:19;;;;;;;3.20;2.63;;;26.50;47.50;;;;;;5022407;28;20038;-55
2021/07/03 12:23:48;;;;;;;2.95;2.65;;;26.60;47.50;;;;;;5014151;28;20068;-55
2021/07/03 12:26:31;;;;;;;3.15;2.53;;;26.60;47.60;;;;;;5021064;28;20068;-57
2021/07/03 12:29:03;;;;;;;3.47;2.50;;;26.60;47.50;;;;;;5017842;28;20033;-59
2021/07/03 12:31:39;;;;;;;2.28;2.08;;;26.60;47.50;;;;;;5025311;28;20577;-63
2021/07/03 12:34:13;;;;;;;3.58;2.55;;;26.70;47.50;;;;;;5019716;28;20495;-60
2021/07/03 12:36:47;;;;;;;2.85;2.40;;;26.70;47.50;;;;;;5018101;28;20037;-62
2021/07/03 12:39:19;;;;;;;2.63;2.17;;;26.70;47.50;;;;;;5024985;28;20463;-60
2021/07/03 12:41:52;;;;;;;3.25;2.35;;;26.80;47.50;;;;;;5022740;28;20349;-59
2021/07/03 12:44:19;;;;;;;3.37;2.27;;;26.80;47.50;;;;;;5019940;28;20059;-60
2021/07/03 12:46:45;;;;;;;2.67;2.47;;;26.80;47.40;;;;;;5018119;28;20704;-61
2021/07/03 12:49:11;;;;;;;2.90;2.60;;;26.80;47.30;;;;;;5023172;28;20036;-65
2021/07/03 12:51:40;;;;;;;2.53;2.28;;;26.80;47.10;;;;;;5019016;28;20021;-62
2021/07/03 12:54:07;;;;;;;2.53;2.25;;;26.80;47.10;;;;;;5015574;28;20025;-64